sensor_id;sensor_type;location;lat;lon;timestamp;pressure;altitude;pressure_sealevel;temperature;humidity
37892;BME280;45797;47.466;9.486;2022-07-29T00:04:44;95726.91;;;21.51;58.71
37892;BME280;45797;47.466;9.486;2022-07-29T00:09:44;95721.56;;;21.51;58.47
37892;BME280;45797;47.466;9.486;2022-07-29T00:14:55;95718.72;;;21.53;58.64
37892;BME280;45797;47.466;9.486;2022-07-29T00:19:55;95706.78;;;21.41;58.89
37892;BME280;45797;47.466;9.486;2022-07-29T00:24:55;95703.50;;;21.38;58.44
37892;BME280;45797;47.466;9.486;2022-07-29T00:29:56;95702.47;;;21.39;57.94
37892;BME280;45797;47.466;9.486;2022-07-29T00:34:56;95699.34;;;21.36;58.55
37892;BME280;45797;47.466;9.486;2022-07-29T00:40:15;95697.06;;;21.33;58.49
37892;BME280;45797;47.466;9.486;2022-07-29T00:45:15;95695.75;;;21.29;58.45
37892;BME280;45797;47.466;9.486;2022-07-29T00:50:18;95693.06;;;21.29;58.49
37892;BME280;45797;47.466;9.486;2022-07-29T00:55:18;95676.09;;;21.22;58.48
37892;BME280;45797;47.466;9.486;2022-07-29T01:00:23;95680.47;;;21.23;58.74
37892;BME280;45797;47.466;9.486;2022-07-29T01:05:27;95687.97;;;21.19;58.76
37892;BME280;45797;47.466;9.486;2022-07-29T01:10:29;95685.84;;;21.15;58.85
37892;BME280;45797;47.466;9.486;2022-07-29T01:15:30;95698.50;;;21.13;59.02
37892;BME280;45797;47.466;9.486;2022-07-29T01:30:54;95670.56;;;21.08;59.54
37892;BME280;45797;47.466;9.486;2022-07-29T01:35:54;95667.44;;;21.05;59.32
37892;BME280;45797;47.466;9.486;2022-07-29T01:41:05;95666.06;;;21.09;59.08
37892;BME280;45797;47.466;9.486;2022-07-29T01:46:14;95655.47;;;21.01;59.22
37892;BME280;45797;47.466;9.486;2022-07-29T01:51:19;95652.34;;;20.97;59.18
37892;BME280;45797;47.466;9.486;2022-07-29T01:56:20;95659.69;;;20.95;59.14
37892;BME280;45797;47.466;9.486;2022-07-29T02:01:31;95652.16;;;20.99;58.93
37892;BME280;45797;47.466;9.486;2022-07-29T02:06:38;95644.72;;;20.94;59.51
37892;BME280;45797;47.466;9.486;2022-07-29T02:11:44;95654.25;;;20.89;59.35
37892;BME280;45797;47.466;9.486;2022-07-29T02:16:48;95651.13;;;20.85;59.68
37892;BME280;45797;47.466;9.486;2022-07-29T02:21:50;95652.09;;;20.84;59.75
37892;BME280;45797;47.466;9.486;2022-07-29T02:26:52;95646.94;;;20.82;59.50
37892;BME280;45797;47.466;9.486;2022-07-29T02:31:53;95644.47;;;20.81;59.33
37892;BME280;45797;47.466;9.486;2022-07-29T02:36:55;95652.47;;;20.81;59.68
37892;BME280;45797;47.466;9.486;2022-07-29T02:42:02;95647.78;;;20.83;59.47
37892;BME280;45797;47.466;9.486;2022-07-29T02:47:22;95650.28;;;20.85;59.44
37892;BME280;45797;47.466;9.486;2022-07-29T02:57:43;95652.00;;;20.77;59.35
37892;BME280;45797;47.466;9.486;2022-07-29T03:02:45;95664.16;;;20.72;59.91
37892;BME280;45797;47.466;9.486;2022-07-29T03:07:57;95660.16;;;20.76;59.84
37892;BME280;45797;47.466;9.486;2022-07-29T03:13:00;95657.84;;;20.73;59.84
37892;BME280;45797;47.466;9.486;2022-07-29T03:18:00;95667.47;;;20.74;59.91
37892;BME280;45797;47.466;9.486;2022-07-29T03:23:01;95661.81;;;20.77;60.23
37892;BME280;45797;47.466;9.486;2022-07-29T03:28:07;95657.41;;;20.84;59.79
37892;BME280;45797;47.466;9.486;2022-07-29T03:33:11;95653.78;;;20.85;59.84
37892;BME280;45797;47.466;9.486;2022-07-29T03:38:20;95655.88;;;20.90;59.85
37892;BME280;45797;47.466;9.486;2022-07-29T03:43:32;95663.69;;;20.91;59.73
37892;BME280;45797;47.466;9.486;2022-07-29T03:48:37;95655.06;;;20.89;60.21
37892;BME280;45797;47.466;9.486;2022-07-29T03:53:40;95654.88;;;20.91;60.54
37892;BME280;45797;47.466;9.486;2022-07-29T03:58:44;95677.97;;;20.98;59.84
37892;BME280;45797;47.466;9.486;2022-07-29T04:03:44;95672.00;;;20.96;60.24
37892;BME280;45797;47.466;9.486;2022-07-29T04:08:49;95674.59;;;21.04;60.52
37892;BME280;45797;47.466;9.486;2022-07-29T04:13:49;95682.88;;;21.09;60.01
37892;BME280;45797;47.466;9.486;2022-07-29T04:18:50;95688.97;;;21.18;59.99
37892;BME280;45797;47.466;9.486;2022-07-29T04:23:50;95683.75;;;21.25;59.62
37892;BME280;45797;47.466;9.486;2022-07-29T04:28:52;95693.56;;;21.32;60.00
37892;BME280;45797;47.466;9.486;2022-07-29T04:33:52;95693.84;;;21.37;59.79
37892;BME280;45797;47.466;9.486;2022-07-29T04:38:52;95702.28;;;21.41;60.00
37892;BME280;45797;47.466;9.486;2022-07-29T04:44:00;95694.91;;;21.51;59.55
37892;BME280;45797;47.466;9.486;2022-07-29T04:49:04;95695.06;;;21.50;59.77
37892;BME280;45797;47.466;9.486;2022-07-29T04:54:06;95692.69;;;21.55;59.87
37892;BME280;45797;47.466;9.486;2022-07-29T04:59:08;95701.81;;;21.60;59.68
37892;BME280;45797;47.466;9.486;2022-07-29T05:04:08;95711.75;;;21.66;60.07
37892;BME280;45797;47.466;9.486;2022-07-29T05:09:08;95712.03;;;21.72;59.81
37892;BME280;45797;47.466;9.486;2022-07-29T05:14:08;95717.63;;;21.77;59.64
37892;BME280;45797;47.466;9.486;2022-07-29T05:19:09;95715.28;;;21.82;60.33
37892;BME280;45797;47.466;9.486;2022-07-29T05:24:10;95731.84;;;21.92;60.01
37892;BME280;45797;47.466;9.486;2022-07-29T05:29:11;95725.59;;;22.00;60.20
37892;BME280;45797;47.466;9.486;2022-07-29T05:34:12;95724.22;;;22.04;59.88
37892;BME280;45797;47.466;9.486;2022-07-29T05:39:12;95716.34;;;22.10;60.50
37892;BME280;45797;47.466;9.486;2022-07-29T05:44:13;95720.28;;;22.14;60.26
37892;BME280;45797;47.466;9.486;2022-07-29T05:49:14;95710.91;;;22.18;60.34
37892;BME280;45797;47.466;9.486;2022-07-29T05:54:16;95690.19;;;22.20;60.47
37892;BME280;45797;47.466;9.486;2022-07-29T05:59:17;95684.47;;;22.23;60.73
37892;BME280;45797;47.466;9.486;2022-07-29T06:04:17;95700.50;;;22.09;60.98
37892;BME280;45797;47.466;9.486;2022-07-29T06:09:19;95698.47;;;22.11;61.32
37892;BME280;45797;47.466;9.486;2022-07-29T06:14:24;95692.78;;;22.29;60.53
37892;BME280;45797;47.466;9.486;2022-07-29T06:19:30;95701.75;;;22.42;60.28
37892;BME280;45797;47.466;9.486;2022-07-29T06:24:30;95701.66;;;22.50;60.32
37892;BME280;45797;47.466;9.486;2022-07-29T06:29:37;95703.75;;;22.70;59.89
37892;BME280;45797;47.466;9.486;2022-07-29T06:34:37;95709.19;;;22.76;60.01
37892;BME280;45797;47.466;9.486;2022-07-29T06:39:38;95720.03;;;22.90;59.70
37892;BME280;45797;47.466;9.486;2022-07-29T06:44:38;95724.88;;;23.01;59.80
37892;BME280;45797;47.466;9.486;2022-07-29T06:49:38;95735.03;;;23.27;59.30
37892;BME280;45797;47.466;9.486;2022-07-29T06:54:38;95735.47;;;23.52;59.37
37892;BME280;45797;47.466;9.486;2022-07-29T06:59:40;95733.88;;;23.79;58.90
37892;BME280;45797;47.466;9.486;2022-07-29T07:04:39;95732.66;;;24.09;58.19
37892;BME280;45797;47.466;9.486;2022-07-29T07:09:39;95725.03;;;24.41;57.06
37892;BME280;45797;47.466;9.486;2022-07-29T07:14:39;95733.78;;;24.63;57.43
37892;BME280;45797;47.466;9.486;2022-07-29T07:19:40;95742.72;;;24.76;56.84
37892;BME280;45797;47.466;9.486;2022-07-29T07:24:40;95738.78;;;24.66;57.87
37892;BME280;45797;47.466;9.486;2022-07-29T07:29:40;95746.84;;;24.79;57.26
37892;BME280;45797;47.466;9.486;2022-07-29T07:34:54;95761.53;;;24.90;57.20
37892;BME280;45797;47.466;9.486;2022-07-29T07:39:55;95776.78;;;24.89;57.32
37892;BME280;45797;47.466;9.486;2022-07-29T07:44:55;95789.78;;;24.86;57.59
37892;BME280;45797;47.466;9.486;2022-07-29T07:49:56;95796.63;;;25.01;57.39
37892;BME280;45797;47.466;9.486;2022-07-29T07:54:55;95807.41;;;25.08;57.48
37892;BME280;45797;47.466;9.486;2022-07-29T07:59:55;95816.69;;;25.05;57.78
37892;BME280;45797;47.466;9.486;2022-07-29T08:04:55;95819.41;;;25.12;57.94
37892;BME280;45797;47.466;9.486;2022-07-29T08:09:56;95822.09;;;25.19;57.74
37892;BME280;45797;47.466;9.486;2022-07-29T08:14:57;95833.41;;;25.08;58.27
37892;BME280;45797;47.466;9.486;2022-07-29T08:19:58;95823.09;;;25.04;58.19
37892;BME280;45797;47.466;9.486;2022-07-29T08:25:03;95819.78;;;25.09;58.37
37892;BME280;45797;47.466;9.486;2022-07-29T08:30:03;95811.13;;;25.07;58.41
37892;BME280;45797;47.466;9.486;2022-07-29T08:35:03;95823.66;;;25.00;58.42
37892;BME280;45797;47.466;9.486;2022-07-29T08:40:05;95819.31;;;24.99;58.93
37892;BME280;45797;47.466;9.486;2022-07-29T08:45:06;95819.09;;;25.00;58.84
37892;BME280;45797;47.466;9.486;2022-07-29T08:50:10;95814.88;;;25.13;58.70
37892;BME280;45797;47.466;9.486;2022-07-29T08:55:11;95825.22;;;25.22;59.32
37892;BME280;45797;47.466;9.486;2022-07-29T09:00:11;95831.69;;;25.41;58.31
37892;BME280;45797;47.466;9.486;2022-07-29T09:05:11;95838.25;;;25.32;58.62
37892;BME280;45797;47.466;9.486;2022-07-29T09:10:11;95855.34;;;25.24;59.51
37892;BME280;45797;47.466;9.486;2022-07-29T09:15:12;95864.44;;;25.30;59.46
37892;BME280;45797;47.466;9.486;2022-07-29T09:20:14;95851.47;;;25.33;59.20
37892;BME280;45797;47.466;9.486;2022-07-29T09:25:37;95848.16;;;25.38;59.13
37892;BME280;45797;47.466;9.486;2022-07-29T09:30:53;95853.69;;;25.23;59.74
37892;BME280;45797;47.466;9.486;2022-07-29T09:36:08;95855.28;;;25.04;60.27
37892;BME280;45797;47.466;9.486;2022-07-29T09:41:08;95853.75;;;24.95;60.95
37892;BME280;45797;47.466;9.486;2022-07-29T09:46:13;95855.19;;;24.98;61.03
37892;BME280;45797;47.466;9.486;2022-07-29T09:51:20;95842.22;;;25.01;60.63
37892;BME280;45797;47.466;9.486;2022-07-29T09:56:42;95828.66;;;25.10;60.69
37892;BME280;45797;47.466;9.486;2022-07-29T10:01:43;95821.44;;;25.10;60.51
37892;BME280;45797;47.466;9.486;2022-07-29T10:07:02;95824.00;;;25.25;60.53
37892;BME280;45797;47.466;9.486;2022-07-29T10:12:12;95803.59;;;25.30;60.78
37892;BME280;45797;47.466;9.486;2022-07-29T10:17:18;95799.25;;;25.36;60.87
37892;BME280;45797;47.466;9.486;2022-07-29T10:22:22;95799.69;;;25.46;60.90
37892;BME280;45797;47.466;9.486;2022-07-29T10:27:23;95813.13;;;25.53;60.81
37892;BME280;45797;47.466;9.486;2022-07-29T10:43:31;95811.38;;;26.06;59.89
37892;BME280;45797;47.466;9.486;2022-07-29T10:53:57;95810.13;;;26.09;59.55
37892;BME280;45797;47.466;9.486;2022-07-29T11:15:22;95788.16;;;26.71;57.91
37892;BME280;45797;47.466;9.486;2022-07-29T11:20:46;95783.13;;;26.88;57.20
37892;BME280;45797;47.466;9.486;2022-07-29T11:26:20;95781.88;;;26.97;56.86
37892;BME280;45797;47.466;9.486;2022-07-29T11:31:39;95789.25;;;27.22;56.26
37892;BME280;45797;47.466;9.486;2022-07-29T11:47:28;95782.00;;;27.67;55.18
37892;BME280;45797;47.466;9.486;2022-07-29T11:52:38;95787.41;;;27.85;54.74
37892;BME280;45797;47.466;9.486;2022-07-29T11:58:01;95772.16;;;27.79;54.79
37892;BME280;45797;47.466;9.486;2022-07-29T12:03:04;95774.41;;;27.82;54.76
37892;BME280;45797;47.466;9.486;2022-07-29T12:08:12;95778.31;;;28.11;54.04
37892;BME280;45797;47.466;9.486;2022-07-29T12:13:14;95779.53;;;28.15;53.70
37892;BME280;45797;47.466;9.486;2022-07-29T12:18:17;95776.09;;;28.33;53.79
37892;BME280;45797;47.466;9.486;2022-07-29T12:23:19;95781.97;;;28.67;52.70
37892;BME280;45797;47.466;9.486;2022-07-29T12:28:20;95785.84;;;28.53;53.02
37892;BME280;45797;47.466;9.486;2022-07-29T12:33:27;95777.16;;;28.51;52.74
37892;BME280;45797;47.466;9.486;2022-07-29T12:38:29;95777.44;;;28.61;52.69
37892;BME280;45797;47.466;9.486;2022-07-29T12:43:29;95775.28;;;28.69;52.44
37892;BME280;45797;47.466;9.486;2022-07-29T12:48:39;95780.97;;;28.61;53.10
37892;BME280;45797;47.466;9.486;2022-07-29T12:53:40;95769.78;;;28.39;53.54
37892;BME280;45797;47.466;9.486;2022-07-29T12:58:41;95773.41;;;28.33;53.20
37892;BME280;45797;47.466;9.486;2022-07-29T13:03:56;95774.97;;;28.41;52.86
37892;BME280;45797;47.466;9.486;2022-07-29T13:09:17;95779.84;;;28.26;53.05
37892;BME280;45797;47.466;9.486;2022-07-29T13:14:44;95774.69;;;27.99;53.36
37892;BME280;45797;47.466;9.486;2022-07-29T13:20:15;95782.41;;;27.96;53.53
37892;BME280;45797;47.466;9.486;2022-07-29T13:25:29;95792.19;;;28.15;53.43
37892;BME280;45797;47.466;9.486;2022-07-29T13:30:29;95792.69;;;28.30;53.10
37892;BME280;45797;47.466;9.486;2022-07-29T13:35:35;95790.03;;;28.49;52.29
37892;BME280;45797;47.466;9.486;2022-07-29T13:40:40;95793.78;;;28.48;52.79
37892;BME280;45797;47.466;9.486;2022-07-29T13:45:47;95796.13;;;28.62;52.24
37892;BME280;45797;47.466;9.486;2022-07-29T13:50:47;95793.81;;;28.84;51.55
37892;BME280;45797;47.466;9.486;2022-07-29T13:55:48;95788.66;;;29.01;51.35
37892;BME280;45797;47.466;9.486;2022-07-29T14:00:49;95790.69;;;29.06;50.81
37892;BME280;45797;47.466;9.486;2022-07-29T14:05:48;95782.97;;;28.91;50.90
37892;BME280;45797;47.466;9.486;2022-07-29T14:10:48;95780.03;;;28.74;51.38
37892;BME280;45797;47.466;9.486;2022-07-29T14:15:55;95793.50;;;28.74;51.33
37892;BME280;45797;47.466;9.486;2022-07-29T14:21:02;95804.06;;;28.57;51.64
37892;BME280;45797;47.466;9.486;2022-07-29T14:26:02;95811.50;;;28.37;51.59
37892;BME280;45797;47.466;9.486;2022-07-29T14:31:02;95819.06;;;28.22;51.69
37892;BME280;45797;47.466;9.486;2022-07-29T14:36:02;95831.91;;;27.95;52.09
37892;BME280;45797;47.466;9.486;2022-07-29T14:41:03;95844.28;;;27.64;52.46
37892;BME280;45797;47.466;9.486;2022-07-29T14:46:09;95853.16;;;27.33;52.50
37892;BME280;45797;47.466;9.486;2022-07-29T14:51:09;95863.81;;;27.01;52.39
37892;BME280;45797;47.466;9.486;2022-07-29T14:56:10;95867.38;;;26.75;52.40
37892;BME280;45797;47.466;9.486;2022-07-29T15:01:13;95868.84;;;26.58;53.03
37892;BME280;45797;47.466;9.486;2022-07-29T15:06:13;95878.34;;;26.41;53.09
37892;BME280;45797;47.466;9.486;2022-07-29T15:11:13;95875.63;;;26.28;53.02
37892;BME280;45797;47.466;9.486;2022-07-29T15:16:23;95871.72;;;26.17;52.83
37892;BME280;45797;47.466;9.486;2022-07-29T15:21:24;95879.53;;;25.92;53.09
37892;BME280;45797;47.466;9.486;2022-07-29T15:26:28;95881.53;;;25.77;53.17
37892;BME280;45797;47.466;9.486;2022-07-29T15:31:28;95891.16;;;25.51;53.56
37892;BME280;45797;47.466;9.486;2022-07-29T15:36:29;95896.44;;;25.31;53.94
37892;BME280;45797;47.466;9.486;2022-07-29T15:41:30;95902.72;;;25.11;54.12
37892;BME280;45797;47.466;9.486;2022-07-29T15:46:30;95921.16;;;24.92;54.20
37892;BME280;45797;47.466;9.486;2022-07-29T15:51:48;95918.16;;;24.74;54.82
37892;BME280;45797;47.466;9.486;2022-07-29T15:56:48;95904.28;;;24.64;55.08
37892;BME280;45797;47.466;9.486;2022-07-29T16:01:49;95898.59;;;24.52;55.25
37892;BME280;45797;47.466;9.486;2022-07-29T16:06:50;95897.47;;;24.40;55.72
37892;BME280;45797;47.466;9.486;2022-07-29T16:11:51;95887.72;;;24.32;55.71
37892;BME280;45797;47.466;9.486;2022-07-29T16:16:52;95896.88;;;24.23;56.06
37892;BME280;45797;47.466;9.486;2022-07-29T16:21:52;95903.22;;;24.15;55.98
37892;BME280;45797;47.466;9.486;2022-07-29T16:26:52;95902.69;;;24.05;55.72
37892;BME280;45797;47.466;9.486;2022-07-29T16:31:54;95894.63;;;23.99;56.36
37892;BME280;45797;47.466;9.486;2022-07-29T16:37:00;95901.38;;;23.94;56.29
37892;BME280;45797;47.466;9.486;2022-07-29T16:42:00;95902.25;;;23.80;57.25
37892;BME280;45797;47.466;9.486;2022-07-29T16:47:00;95902.38;;;23.72;56.92
37892;BME280;45797;47.466;9.486;2022-07-29T16:52:00;95900.72;;;23.71;56.98
37892;BME280;45797;47.466;9.486;2022-07-29T16:57:03;95897.41;;;23.69;57.01
37892;BME280;45797;47.466;9.486;2022-07-29T17:02:04;95900.00;;;23.62;57.23
37892;BME280;45797;47.466;9.486;2022-07-29T17:07:04;95910.91;;;23.61;56.91
37892;BME280;45797;47.466;9.486;2022-07-29T17:12:07;95903.91;;;23.60;57.21
37892;BME280;45797;47.466;9.486;2022-07-29T17:17:07;95904.16;;;23.50;56.96
37892;BME280;45797;47.466;9.486;2022-07-29T17:22:08;95907.13;;;23.41;57.54
37892;BME280;45797;47.466;9.486;2022-07-29T17:27:11;95912.41;;;23.34;57.67
37892;BME280;45797;47.466;9.486;2022-07-29T17:32:11;95913.72;;;23.23;57.76
37892;BME280;45797;47.466;9.486;2022-07-29T17:37:11;95921.19;;;23.13;57.78
37892;BME280;45797;47.466;9.486;2022-07-29T17:42:13;95922.56;;;23.09;57.56
37892;BME280;45797;47.466;9.486;2022-07-29T17:47:14;95932.16;;;23.03;57.54
37892;BME280;45797;47.466;9.486;2022-07-29T17:52:15;95932.69;;;22.99;57.96
37892;BME280;45797;47.466;9.486;2022-07-29T17:57:16;95943.75;;;22.96;58.07
37892;BME280;45797;47.466;9.486;2022-07-29T18:02:17;95949.44;;;22.93;58.65
37892;BME280;45797;47.466;9.486;2022-07-29T18:07:17;95956.56;;;22.86;58.79
37892;BME280;45797;47.466;9.486;2022-07-29T18:12:17;95961.75;;;22.79;58.90
37892;BME280;45797;47.466;9.486;2022-07-29T18:17:17;95977.50;;;22.74;59.57
37892;BME280;45797;47.466;9.486;2022-07-29T18:22:27;95982.00;;;22.73;59.48
37892;BME280;45797;47.466;9.486;2022-07-29T18:27:27;95989.81;;;22.60;60.40
37892;BME280;45797;47.466;9.486;2022-07-29T18:32:28;95989.88;;;22.52;60.59
37892;BME280;45797;47.466;9.486;2022-07-29T18:37:28;95987.03;;;22.53;60.11
37892;BME280;45797;47.466;9.486;2022-07-29T18:42:27;95988.34;;;22.58;60.44
37892;BME280;45797;47.466;9.486;2022-07-29T18:47:27;95986.97;;;22.62;60.48
37892;BME280;45797;47.466;9.486;2022-07-29T18:52:28;95983.81;;;22.58;60.48
37892;BME280;45797;47.466;9.486;2022-07-29T18:57:30;95977.91;;;22.48;60.72
37892;BME280;45797;47.466;9.486;2022-07-29T19:02:40;95972.25;;;22.43;60.49
37892;BME280;45797;47.466;9.486;2022-07-29T19:07:39;95967.72;;;22.29;61.16
37892;BME280;45797;47.466;9.486;2022-07-29T19:12:40;95956.09;;;22.21;61.32
37892;BME280;45797;47.466;9.486;2022-07-29T19:17:40;95955.69;;;22.10;61.25
37892;BME280;45797;47.466;9.486;2022-07-29T19:22:43;95955.34;;;22.05;61.22
37892;BME280;45797;47.466;9.486;2022-07-29T19:27:56;95945.69;;;22.04;60.80
37892;BME280;45797;47.466;9.486;2022-07-29T19:32:56;95941.94;;;21.90;61.22
37892;BME280;45797;47.466;9.486;2022-07-29T19:37:59;95943.78;;;21.89;60.96
37892;BME280;45797;47.466;9.486;2022-07-29T19:43:02;95946.97;;;21.85;60.89
37892;BME280;45797;47.466;9.486;2022-07-29T19:48:02;95949.34;;;21.80;60.40
37892;BME280;45797;47.466;9.486;2022-07-29T19:53:03;95954.84;;;21.78;60.52
37892;BME280;45797;47.466;9.486;2022-07-29T19:58:09;95964.63;;;21.86;59.72
37892;BME280;45797;47.466;9.486;2022-07-29T20:03:15;95981.28;;;21.88;59.76
37892;BME280;45797;47.466;9.486;2022-07-29T20:08:15;95977.13;;;21.85;59.30
37892;BME280;45797;47.466;9.486;2022-07-29T20:13:18;95973.97;;;21.90;59.73
37892;BME280;45797;47.466;9.486;2022-07-29T20:18:20;95979.81;;;21.85;59.98
37892;BME280;45797;47.466;9.486;2022-07-29T20:23:21;95983.66;;;21.83;59.20
37892;BME280;45797;47.466;9.486;2022-07-29T20:28:22;95997.00;;;21.83;59.47
37892;BME280;45797;47.466;9.486;2022-07-29T20:33:23;96003.81;;;21.85;59.09
37892;BME280;45797;47.466;9.486;2022-07-29T20:38:24;95994.97;;;21.85;59.04
37892;BME280;45797;47.466;9.486;2022-07-29T20:43:33;95995.94;;;21.92;58.78
37892;BME280;45797;47.466;9.486;2022-07-29T20:48:37;95986.97;;;21.85;58.94
37892;BME280;45797;47.466;9.486;2022-07-29T20:54:03;95992.50;;;21.83;58.80
37892;BME280;45797;47.466;9.486;2022-07-29T20:59:04;95998.88;;;21.74;58.94
37892;BME280;45797;47.466;9.486;2022-07-29T21:04:04;96005.88;;;21.75;59.00
37892;BME280;45797;47.466;9.486;2022-07-29T21:09:04;96003.69;;;21.79;58.43
37892;BME280;45797;47.466;9.486;2022-07-29T21:14:04;96002.53;;;21.81;58.91
37892;BME280;45797;47.466;9.486;2022-07-29T21:19:05;96006.06;;;21.74;59.08
37892;BME280;45797;47.466;9.486;2022-07-29T21:24:16;96003.88;;;21.69;58.95
37892;BME280;45797;47.466;9.486;2022-07-29T21:29:22;96005.28;;;21.57;59.73
37892;BME280;45797;47.466;9.486;2022-07-29T21:34:25;95998.50;;;21.46;59.97
37892;BME280;45797;47.466;9.486;2022-07-29T21:39:28;96004.69;;;21.38;60.33
37892;BME280;45797;47.466;9.486;2022-07-29T21:44:31;96007.06;;;21.33;60.31
37892;BME280;45797;47.466;9.486;2022-07-29T21:49:31;96000.06;;;21.24;60.76
37892;BME280;45797;47.466;9.486;2022-07-29T21:54:33;96011.38;;;21.18;60.44
37892;BME280;45797;47.466;9.486;2022-07-29T21:59:35;96004.25;;;21.10;61.20
37892;BME280;45797;47.466;9.486;2022-07-29T22:04:35;96001.59;;;21.02;61.31
37892;BME280;45797;47.466;9.486;2022-07-29T22:09:35;95998.44;;;20.99;61.26
37892;BME280;45797;47.466;9.486;2022-07-29T22:14:39;95995.97;;;20.97;60.95
37892;BME280;45797;47.466;9.486;2022-07-29T22:19:38;95989.47;;;20.92;61.54
37892;BME280;45797;47.466;9.486;2022-07-29T22:24:40;95992.31;;;20.90;61.46
37892;BME280;45797;47.466;9.486;2022-07-29T22:29:46;95994.47;;;20.95;61.30
37892;BME280;45797;47.466;9.486;2022-07-29T22:34:47;96002.97;;;20.90;61.56
37892;BME280;45797;47.466;9.486;2022-07-29T22:39:47;96005.78;;;20.89;61.53
37892;BME280;45797;47.466;9.486;2022-07-29T22:44:54;96006.44;;;20.91;61.48
37892;BME280;45797;47.466;9.486;2022-07-29T22:49:56;95993.97;;;20.83;62.17
37892;BME280;45797;47.466;9.486;2022-07-29T22:54:56;95988.34;;;20.78;62.40
37892;BME280;45797;47.466;9.486;2022-07-29T23:00:11;95989.34;;;20.85;61.77
37892;BME280;45797;47.466;9.486;2022-07-29T23:05:16;95980.00;;;20.81;62.16
37892;BME280;45797;47.466;9.486;2022-07-29T23:10:16;95986.00;;;20.75;62.06
37892;BME280;45797;47.466;9.486;2022-07-29T23:15:21;95980.34;;;20.78;62.29
37892;BME280;45797;47.466;9.486;2022-07-29T23:20:21;95981.19;;;20.70;62.41
37892;BME280;45797;47.466;9.486;2022-07-29T23:25:22;95974.19;;;20.69;62.70
37892;BME280;45797;47.466;9.486;2022-07-29T23:30:23;95972.53;;;20.68;62.45
37892;BME280;45797;47.466;9.486;2022-07-29T23:35:27;95976.03;;;20.69;62.39
37892;BME280;45797;47.466;9.486;2022-07-29T23:40:27;95977.69;;;20.62;62.72
37892;BME280;45797;47.466;9.486;2022-07-29T23:45:35;95970.38;;;20.64;62.83
37892;BME280;45797;47.466;9.486;2022-07-29T23:50:34;95968.72;;;20.54;62.67
37892;BME280;45797;47.466;9.486;2022-07-29T23:55:34;95975.88;;;20.54;62.77
